Buck Creek, Indiana
Current Conditions -  °F | °C
As of 5:54 PM on Monday 22 Dec 2014 (Local Time) from KLAF Reporting Station
Light Rain Light Rain  
Wind Chill:   Ceiling: 4900
Heat Index:   Visibility: 6mi
Dew Point:   Wind: 13mph
Humidity: 93%   Direction: 110°ESE
Pressure: 29.71"   Gusts: NA
Location:  40.49°N, 86.76°W
Report Text: KLAF 222254Z 11011KT 6SM -RA BR FEW035 OVC049 05/04 A2971 RMK AO2 SLP065 P0001 T00500039
Loading
Personal Weather Stations






























Interactive Weather Map New forecast layout! Learn more

10-Day Weather Forecast

Advertisements
Track Severe Weather on mobile